Time,TemperatureF,DewpointF,PressureIn,WindDirection,WindDirectionDegrees,WindSpeedMPH,WindSpeedGustMPH,Humidity,HourlyPrecipIn,Conditions,Clouds,dailyrainin,SoftwareType,DateUTC
2013-05-01 00:01:00,55.0,31.8,30.37,East,99,0.0,5.0,41,0.00,,,0.00,meteohub,2013-05-01 04:01:00,
2013-05-01 00:06:00,54.9,32.2,30.37,ESE,110,1.0,3.0,42,0.00,,,0.00,meteohub,2013-05-01 04:06:00,
2013-05-01 00:11:00,54.7,31.5,30.37,ESE,109,0.0,3.0,41,0.00,,,0.00,meteohub,2013-05-01 04:11:00,
2013-05-01 00:16:00,54.7,31.5,30.37,East,89,0.0,3.0,41,0.00,,,0.00,meteohub,2013-05-01 04:16:00,
2013-05-01 00:21:00,54.5,31.8,30.37,East,99,1.0,3.0,42,0.00,,,0.00,meteohub,2013-05-01 04:21:00,
2013-05-01 00:26:00,54.3,31.6,30.37,East,92,0.0,3.0,42,0.00,,,0.00,meteohub,2013-05-01 04:26:00,
2013-05-01 00:31:00,53.8,32.4,30.38,East,92,0.0,3.0,44,0.00,,,0.00,meteohub,2013-05-01 04:31:00,
2013-05-01 00:36:00,53.2,31.8,30.38,East,92,0.0,3.0,44,0.00,,,0.00,meteohub,2013-05-01 04:36:00,
2013-05-01 00:41:00,53.1,31.6,30.38,East,98,1.0,3.0,44,0.00,,,0.00,meteohub,2013-05-01 04:41:00,
2013-05-01 00:46:00,53.1,31.6,30.38,East,83,2.0,3.0,44,0.00,,,0.00,meteohub,2013-05-01 04:46:00,
2013-05-01 00:51:00,53.2,31.3,30.38,East,83,1.0,3.0,43,0.00,,,0.00,meteohub,2013-05-01 04:51:00,
2013-05-01 00:56:00,53.2,32.4,30.38,East,83,0.0,3.0,45,0.00,,,0.00,meteohub,2013-05-01 04:56:00,
2013-05-01 01:01:00,52.3,31.6,30.38,East,83,0.0,3.0,45,0.00,,,0.00,meteohub,2013-05-01 05:01:00,
2013-05-01 01:06:00,52.3,32.2,30.38,East,83,1.0,3.0,46,0.00,,,0.00,meteohub,2013-05-01 05:06:00,
2013-05-01 01:11:00,51.3,33.3,30.39,North,0,1.0,2.0,50,0.00,,,0.00,meteohub,2013-05-01 05:11:00,
2013-05-01 01:16:00,49.8,33.4,30.39,North,0,0.0,3.0,53,0.00,,,0.00,meteohub,2013-05-01 05:16:00,
2013-05-01 01:21:00,49.3,33.8,30.39,North,0,0.0,3.0,55,0.00,,,0.00,meteohub,2013-05-01 05:21:00,
2013-05-01 01:27:00,48.9,34.0,30.40,North,0,0.0,3.0,56,0.00,,,0.00,meteohub,2013-05-01 05:27:00,
2013-05-01 01:32:00,48.9,32.0,30.40,North,0,0.0,1.0,52,0.00,,,0.00,meteohub,2013-05-01 05:32:00,
2013-05-01 01:37:00,49.5,33.4,30.40,North,0,1.0,1.0,54,0.00,,,0.00,meteohub,2013-05-01 05:37:00,
2013-05-01 01:42:00,49.3,32.9,30.40,North,0,0.0,1.0,53,0.00,,,0.00,meteohub,2013-05-01 05:42:00,
2013-05-01 01:47:00,48.7,32.9,30.41,North,0,1.0,1.0,54,0.00,,,0.00,meteohub,2013-05-01 05:47:00,
2013-05-01 01:52:00,48.4,32.0,30.41,North,0,1.0,2.0,53,0.00,,,0.00,meteohub,2013-05-01 05:52:00,
2013-05-01 01:57:00,48.9,31.6,30.40,North,0,0.0,2.0,51,0.00,,,0.00,meteohub,2013-05-01 05:57:00,
2013-05-01 02:02:00,49.3,32.4,30.41,North,0,0.0,2.0,52,0.00,,,0.00,meteohub,2013-05-01 06:02:00,
2013-05-01 02:07:00,48.9,33.1,30.41,North,0,1.0,1.0,54,0.00,,,0.00,meteohub,2013-05-01 06:07:00,
2013-05-01 02:12:00,48.7,31.5,30.41,North,0,0.0,2.0,51,0.00,,,0.00,meteohub,2013-05-01 06:12:00,
2013-05-01 02:17:00,48.9,31.6,30.41,North,0,0.0,2.0,51,0.00,,,0.00,meteohub,2013-05-01 06:17:00,
2013-05-01 02:22:00,48.7,32.4,30.41,North,0,0.0,2.0,53,0.00,,,0.00,meteohub,2013-05-01 06:22:00,
2013-05-01 02:27:00,48.0,33.1,30.41,North,0,1.0,2.0,56,0.00,,,0.00,meteohub,2013-05-01 06:27:00,
2013-05-01 02:32:00,47.7,32.7,30.41,North,0,1.0,2.0,56,0.00,,,0.00,meteohub,2013-05-01 06:32:00,
2013-05-01 02:37:00,47.7,33.3,30.42,North,0,1.0,2.0,57,0.00,,,0.00,meteohub,2013-05-01 06:37:00,
2013-05-01 02:42:00,47.3,33.6,30.42,North,0,1.0,2.0,59,0.00,,,0.00,meteohub,2013-05-01 06:42:00,
2013-05-01 02:47:00,47.1,34.0,30.42,North,0,1.0,2.0,60,0.00,,,0.00,meteohub,2013-05-01 06:47:00,
2013-05-01 02:52:00,46.9,33.8,30.42,North,0,1.0,2.0,60,0.00,,,0.00,meteohub,2013-05-01 06:52:00,
2013-05-01 02:57:00,46.9,32.9,30.43,North,0,0.0,2.0,58,0.00,,,0.00,meteohub,2013-05-01 06:57:00,
2013-05-01 03:02:00,47.5,33.4,30.43,North,0,0.0,2.0,58,0.00,,,0.00,meteohub,2013-05-01 07:02:00,
2013-05-01 03:07:00,47.5,33.1,30.43,North,0,1.0,2.0,57,0.00,,,0.00,meteohub,2013-05-01 07:07:00,
2013-05-01 03:12:00,47.3,32.0,30.43,North,0,0.0,1.0,55,0.00,,,0.00,meteohub,2013-05-01 07:12:00,
2013-05-01 03:17:00,47.5,32.2,30.43,North,0,0.0,1.0,55,0.00,,,0.00,meteohub,2013-05-01 07:17:00,
2013-05-01 03:22:00,47.5,33.1,30.43,North,0,1.0,1.0,57,0.00,,,0.00,meteohub,2013-05-01 07:22:00,
2013-05-01 03:27:00,46.8,34.0,30.43,North,0,1.0,1.0,61,0.00,,,0.00,meteohub,2013-05-01 07:27:00,
2013-05-01 03:32:00,46.6,32.2,30.43,North,0,0.0,1.0,57,0.00,,,0.00,meteohub,2013-05-01 07:32:00,
2013-05-01 03:37:00,47.1,33.1,30.44,North,0,1.0,1.0,58,0.00,,,0.00,meteohub,2013-05-01 07:37:00,
2013-05-01 03:42:00,47.3,31.5,30.44,North,0,0.0,1.0,54,0.00,,,0.00,meteohub,2013-05-01 07:42:00,
2013-05-01 03:47:00,48.0,32.5,30.44,North,0,1.0,1.0,55,0.00,,,0.00,meteohub,2013-05-01 07:47:00,
2013-05-01 03:52:00,47.8,32.5,30.44,North,0,0.0,1.0,55,0.00,,,0.00,meteohub,2013-05-01 07:52:00,
2013-05-01 03:57:00,47.8,32.5,30.44,North,0,0.0,1.0,55,0.00,,,0.00,meteohub,2013-05-01 07:57:00,
2013-05-01 04:02:00,47.8,31.5,30.44,North,0,0.0,1.0,53,0.00,,,0.00,meteohub,2013-05-01 08:02:00,
2013-05-01 04:07:00,47.7,32.4,30.44,North,0,1.0,2.0,55,0.00,,,0.00,meteohub,2013-05-01 08:07:00,
2013-05-01 04:12:00,46.6,33.4,30.45,North,0,1.0,2.0,60,0.00,,,0.00,meteohub,2013-05-01 08:12:00,
2013-05-01 04:17:00,46.0,31.3,30.45,North,0,0.0,2.0,56,0.00,,,0.00,meteohub,2013-05-01 08:17:00,
2013-05-01 04:22:00,46.4,32.9,30.45,North,0,1.0,2.0,59,0.00,,,0.00,meteohub,2013-05-01 08:22:00,
2013-05-01 04:27:00,46.0,32.5,30.45,North,0,0.0,2.0,59,0.00,,,0.00,meteohub,2013-05-01 08:27:00,
2013-05-01 04:32:00,46.6,33.1,30.45,North,0,1.0,2.0,59,0.00,,,0.00,meteohub,2013-05-01 08:32:00,
2013-05-01 04:37:00,46.0,32.5,30.45,North,0,0.0,2.0,59,0.00,,,0.00,meteohub,2013-05-01 08:37:00,
2013-05-01 04:42:00,46.0,32.0,30.45,North,0,0.0,1.0,58,0.00,,,0.00,meteohub,2013-05-01 08:42:00,
2013-05-01 04:47:00,46.2,32.7,30.45,North,0,0.0,1.0,59,0.00,,,0.00,meteohub,2013-05-01 08:47:00,
2013-05-01 04:52:00,45.9,32.7,30.45,North,0,1.0,1.0,60,0.00,,,0.00,meteohub,2013-05-01 08:52:00,
2013-05-01 04:57:00,45.9,32.7,30.45,North,0,0.0,2.0,60,0.00,,,0.00,meteohub,2013-05-01 08:57:00,
2013-05-01 05:02:00,45.7,33.1,30.45,North,0,0.0,2.0,61,0.00,,,0.00,meteohub,2013-05-01 09:02:00,
2013-05-01 05:07:00,45.1,33.3,30.45,North,0,1.0,2.0,63,0.00,,,0.00,meteohub,2013-05-01 09:07:00,
2013-05-01 05:12:00,44.4,32.5,30.45,North,0,1.0,2.0,63,0.00,,,0.00,meteohub,2013-05-01 09:12:00,
2013-05-01 05:17:00,44.6,32.7,30.46,North,0,1.0,2.0,63,0.00,,,0.00,meteohub,2013-05-01 09:17:00,
2013-05-01 05:22:00,44.4,33.1,30.46,North,0,1.0,2.0,64,0.00,,,0.00,meteohub,2013-05-01 09:22:00,
2013-05-01 05:27:00,44.2,32.9,30.46,North,0,1.0,1.0,64,0.00,,,0.00,meteohub,2013-05-01 09:27:00,
2013-05-01 05:32:00,44.4,33.1,30.46,North,0,1.0,1.0,64,0.00,,,0.00,meteohub,2013-05-01 09:32:00,
2013-05-01 05:37:00,44.4,32.5,30.46,North,0,1.0,1.0,63,0.00,,,0.00,meteohub,2013-05-01 09:37:00,
2013-05-01 05:42:00,44.8,32.2,30.46,North,0,1.0,2.0,61,0.00,,,0.00,meteohub,2013-05-01 09:42:00,
2013-05-01 05:47:00,44.8,32.5,30.46,North,0,1.0,2.0,62,0.00,,,0.00,meteohub,2013-05-01 09:47:00,
2013-05-01 05:52:00,45.0,32.7,30.46,North,0,0.0,2.0,62,0.00,,,0.00,meteohub,2013-05-01 09:52:00,
2013-05-01 05:57:00,44.8,32.9,30.47,North,0,1.0,2.0,63,0.00,,,0.00,meteohub,2013-05-01 09:57:00,
2013-05-01 06:02:00,44.8,33.3,30.47,North,0,1.0,2.0,64,0.00,,,0.00,meteohub,2013-05-01 10:02:00,
2013-05-01 06:07:00,45.0,33.1,30.47,North,0,1.0,2.0,63,0.00,,,0.00,meteohub,2013-05-01 10:07:00,
2013-05-01 06:12:00,45.0,32.7,30.47,North,0,1.0,2.0,62,0.00,,,0.00,meteohub,2013-05-01 10:12:00,
2013-05-01 06:17:00,45.1,32.5,30.47,North,0,0.0,2.0,61,0.00,,,0.00,meteohub,2013-05-01 10:17:00,
2013-05-01 06:22:00,45.5,32.9,30.47,North,0,0.0,1.0,61,0.00,,,0.00,meteohub,2013-05-01 10:22:00,
2013-05-01 06:27:00,45.9,33.3,30.48,North,0,0.0,1.0,61,0.00,,,0.00,meteohub,2013-05-01 10:27:00,
2013-05-01 06:32:00,45.9,32.7,30.48,North,0,0.0,1.0,60,0.00,,,0.00,meteohub,2013-05-01 10:32:00,
2013-05-01 06:37:00,46.4,32.0,30.48,North,0,0.0,1.0,57,0.00,,,0.00,meteohub,2013-05-01 10:37:00,
2013-05-01 06:42:00,46.9,32.5,30.48,North,0,0.0,1.0,57,0.00,,,0.00,meteohub,2013-05-01 10:42:00,
2013-05-01 06:47:00,47.7,32.4,30.48,North,0,0.0,1.0,55,0.00,,,0.00,meteohub,2013-05-01 10:47:00,
2013-05-01 06:52:00,48.6,32.7,30.48,North,0,0.0,1.0,54,0.00,,,0.00,meteohub,2013-05-01 10:52:00,
2013-05-01 06:57:00,49.3,32.9,30.48,North,0,0.0,1.0,53,0.00,,,0.00,meteohub,2013-05-01 10:57:00,
2013-05-01 07:02:00,50.2,32.7,30.48,North,0,0.0,0.0,51,0.00,,,0.00,meteohub,2013-05-01 11:02:00,
2013-05-01 07:07:00,51.3,33.8,30.48,North,0,0.0,0.0,51,0.00,,,0.00,meteohub,2013-05-01 11:07:00,
2013-05-01 07:12:00,52.0,36.9,30.48,North,0,0.0,0.0,56,0.00,,,0.00,meteohub,2013-05-01 11:12:00,
2013-05-01 07:17:00,52.3,35.2,30.49,North,0,0.0,0.0,52,0.00,,,0.00,meteohub,2013-05-01 11:17:00,
2013-05-01 07:22:00,52.9,35.8,30.49,NNE,30,0.0,0.0,52,0.00,,,0.00,meteohub,2013-05-01 11:22:00,
2013-05-01 07:27:00,54.1,37.4,30.49,NNE,15,0.0,0.0,53,0.00,,,0.00,meteohub,2013-05-01 11:27:00,
2013-05-01 07:32:00,55.2,36.3,30.49,North,355,0.0,0.0,49,0.00,,,0.00,meteohub,2013-05-01 11:32:00,
2013-05-01 07:37:00,55.8,37.9,30.49,North,355,0.0,1.0,51,0.00,,,0.00,meteohub,2013-05-01 11:37:00,
2013-05-01 07:42:00,55.8,37.9,30.49,North,355,1.0,2.0,51,0.00,,,0.00,meteohub,2013-05-01 11:42:00,
2013-05-01 07:47:00,55.8,37.9,30.49,North,355,0.0,2.0,51,0.00,,,0.00,meteohub,2013-05-01 11:47:00,
2013-05-01 07:52:00,55.8,36.3,30.50,North,355,0.0,2.0,48,0.00,,,0.00,meteohub,2013-05-01 11:52:00,
2013-05-01 07:57:00,55.9,37.0,30.50,North,355,0.0,2.0,49,0.00,,,0.00,meteohub,2013-05-01 11:57:00,
2013-05-01 08:02:00,56.7,36.7,30.50,North,355,0.0,1.0,47,0.00,,,0.00,meteohub,2013-05-01 12:02:00,
2013-05-01 08:07:00,57.2,36.0,30.50,North,355,0.0,0.0,45,0.00,,,0.00,meteohub,2013-05-01 12:07:00,
2013-05-01 08:12:00,57.6,37.4,30.50,SW,232,2.0,4.0,47,0.00,,,0.00,meteohub,2013-05-01 12:12:00,
2013-05-01 08:17:00,57.4,36.7,30.50,SW,232,1.0,4.0,46,0.00,,,0.00,meteohub,2013-05-01 12:17:00,
2013-05-01 08:22:00,57.0,36.0,30.50,SW,229,0.0,4.0,45,0.00,,,0.00,meteohub,2013-05-01 12:22:00,
2013-05-01 08:27:00,57.2,37.8,30.50,SW,224,0.0,3.0,48,0.00,,,0.00,meteohub,2013-05-01 12:27:00,
2013-05-01 08:32:00,57.4,36.1,30.50,SW,224,0.0,3.0,45,0.00,,,0.00,meteohub,2013-05-01 12:32:00,
2013-05-01 08:37:00,57.9,37.8,30.50,SW,224,0.0,3.0,47,0.00,,,0.00,meteohub,2013-05-01 12:37:00,
2013-05-01 08:42:00,58.6,38.5,30.50,SW,224,0.0,2.0,47,0.00,,,0.00,meteohub,2013-05-01 12:42:00,
2013-05-01 08:47:00,59.2,36.1,30.50,SW,224,0.0,1.0,42,0.00,,,0.00,meteohub,2013-05-01 12:47:00,
2013-05-01 08:52:00,59.7,38.8,30.50,SW,227,0.0,2.0,46,0.00,,,0.00,meteohub,2013-05-01 12:52:00,
2013-05-01 08:57:00,60.3,37.8,30.51,SW,228,2.0,2.0,43,0.00,,,0.00,meteohub,2013-05-01 12:57:00,
2013-05-01 09:02:00,60.8,38.7,30.51,NW,310,0.0,3.0,44,0.00,,,0.00,meteohub,2013-05-01 13:02:00,
2013-05-01 09:07:00,61.3,37.4,30.51,WNW,289,0.0,3.0,41,0.00,,,0.00,meteohub,2013-05-01 13:07:00,
2013-05-01 09:12:00,61.3,38.1,30.51,South,180,1.0,3.0,42,0.00,,,0.00,meteohub,2013-05-01 13:12:00,
2013-05-01 09:17:00,61.2,38.5,30.51,SSW,192,1.0,4.0,43,0.00,,,0.00,meteohub,2013-05-01 13:17:00,
2013-05-01 09:22:00,61.2,37.2,30.51,South,175,2.0,4.0,41,0.00,,,0.00,meteohub,2013-05-01 13:22:00,
2013-05-01 09:27:00,61.3,38.1,30.51,South,176,3.0,4.0,42,0.00,,,0.00,meteohub,2013-05-01 13:27:00,
2013-05-01 09:32:00,61.3,36.9,30.51,SSW,192,1.0,4.0,40,0.00,,,0.00,meteohub,2013-05-01 13:32:00,
2013-05-01 09:37:00,61.7,37.8,30.51,South,173,1.0,4.0,41,0.00,,,0.00,meteohub,2013-05-01 13:37:00,
2013-05-01 09:42:00,62.1,38.1,30.51,SSW,200,2.0,4.0,41,0.00,,,0.00,meteohub,2013-05-01 13:42:00,
2013-05-01 09:47:00,62.1,36.9,30.51,South,188,0.0,4.0,39,0.00,,,0.00,meteohub,2013-05-01 13:47:00,
2013-05-01 09:52:00,62.4,35.8,30.51,SSW,213,4.0,4.0,37,0.00,,,0.00,meteohub,2013-05-01 13:52:00,
2013-05-01 09:57:00,62.6,37.2,30.51,South,173,2.0,5.0,39,0.00,,,0.00,meteohub,2013-05-01 13:57:00,
2013-05-01 10:02:00,62.8,39.4,30.51,SW,219,0.0,5.0,42,0.00,,,0.00,meteohub,2013-05-01 14:02:00,
2013-05-01 10:07:00,63.3,40.5,30.51,South,171,1.0,5.0,43,0.00,,,0.00,meteohub,2013-05-01 14:07:00,
2013-05-01 10:12:00,63.1,35.8,30.51,South,188,1.0,5.0,36,0.00,,,0.00,meteohub,2013-05-01 14:12:00,
2013-05-01 10:17:00,63.1,33.6,30.51,SSW,201,2.0,4.0,33,0.00,,,0.00,meteohub,2013-05-01 14:17:00,
2013-05-01 10:22:00,63.5,37.4,30.51,SSW,205,3.0,4.0,38,0.00,,,0.00,meteohub,2013-05-01 14:22:00,
2013-05-01 10:27:00,63.7,38.3,30.51,SSE,165,0.0,5.0,39,0.00,,,0.00,meteohub,2013-05-01 14:27:00,
2013-05-01 10:32:00,64.2,37.4,30.51,South,174,2.0,5.0,37,0.00,,,0.00,meteohub,2013-05-01 14:32:00,
2013-05-01 10:37:00,64.9,34.3,30.51,East,101,2.0,5.0,32,0.00,,,0.00,meteohub,2013-05-01 14:37:00,
2013-05-01 10:42:00,64.9,33.6,30.51,SSE,157,0.0,5.0,31,0.00,,,0.00,meteohub,2013-05-01 14:42:00,
2013-05-01 10:47:00,64.9,36.7,30.50,SW,225,4.0,5.0,35,0.00,,,0.00,meteohub,2013-05-01 14:47:00,
2013-05-01 10:52:00,64.9,33.6,30.50,South,189,3.0,6.0,31,0.00,,,0.00,meteohub,2013-05-01 14:52:00,
2013-05-01 10:57:00,64.9,33.6,30.50,North,0,0.0,6.0,31,0.00,,,0.00,meteohub,2013-05-01 14:57:00,
2013-05-01 11:02:00,65.5,36.3,30.50,East,87,2.0,6.0,34,0.00,,,0.00,meteohub,2013-05-01 15:02:00,
2013-05-01 11:07:00,65.7,36.5,30.50,South,173,4.0,6.0,34,0.00,,,0.00,meteohub,2013-05-01 15:07:00,
2013-05-01 11:12:00,65.5,35.6,30.49,SSW,196,5.0,6.0,33,0.00,,,0.00,meteohub,2013-05-01 15:12:00,
2013-05-01 11:17:00,65.5,34.9,30.49,SW,235,5.0,6.0,32,0.00,,,0.00,meteohub,2013-05-01 15:17:00,
2013-05-01 11:22:00,65.5,39.2,30.49,ENE,65,1.0,12.0,38,0.00,,,0.00,meteohub,2013-05-01 15:22:00,
2013-05-01 11:27:00,66.6,35.1,30.48,SE,125,0.0,12.0,31,0.00,,,0.00,meteohub,2013-05-01 15:27:00,
2013-05-01 11:32:00,66.9,37.6,30.48,East,82,3.0,12.0,34,0.00,,,0.00,meteohub,2013-05-01 15:32:00,
2013-05-01 11:37:00,66.9,36.9,30.48,South,191,2.0,10.0,33,0.00,,,0.00,meteohub,2013-05-01 15:37:00,
2013-05-01 11:42:00,66.7,36.7,30.48,South,176,4.0,10.0,33,0.00,,,0.00,meteohub,2013-05-01 15:42:00,
2013-05-01 11:47:00,66.7,36.7,30.48,South,171,2.0,7.0,33,0.00,,,0.00,meteohub,2013-05-01 15:47:00,
2013-05-01 11:52:00,66.7,36.7,30.48,South,181,2.0,10.0,33,0.00,,,0.00,meteohub,2013-05-01 15:52:00,
2013-05-01 11:57:00,67.3,37.9,30.48,SSE,161,5.0,10.0,34,0.00,,,0.00,meteohub,2013-05-01 15:57:00,
2013-05-01 12:02:00,67.3,34.7,30.48,SSW,196,0.0,9.0,30,0.00,,,0.00,meteohub,2013-05-01 16:02:00,
2013-05-01 12:07:00,67.8,36.9,30.48,East,84,5.0,9.0,32,0.00,,,0.00,meteohub,2013-05-01 16:07:00,
2013-05-01 12:12:00,68.2,38.7,30.48,WSW,241,1.0,9.0,34,0.00,,,0.00,meteohub,2013-05-01 16:12:00,
2013-05-01 12:17:00,68.5,36.0,30.48,SSE,167,0.0,7.0,30,0.00,,,0.00,meteohub,2013-05-01 16:17:00,
2013-05-01 12:22:00,68.7,36.0,30.48,SSW,194,7.0,7.0,30,0.00,,,0.00,meteohub,2013-05-01 16:22:00,
2013-05-01 12:27:00,68.7,35.2,30.47,South,182,3.0,11.0,29,0.00,,,0.00,meteohub,2013-05-01 16:27:00,
2013-05-01 12:32:00,68.7,37.6,30.47,SSW,200,3.0,11.0,32,0.00,,,0.00,meteohub,2013-05-01 16:32:00,
2013-05-01 12:37:00,68.4,38.1,30.47,SE,127,1.0,11.0,33,0.00,,,0.00,meteohub,2013-05-01 16:37:00,
2013-05-01 12:42:00,68.5,38.3,30.47,SE,142,2.0,10.0,33,0.00,,,0.00,meteohub,2013-05-01 16:42:00,
2013-05-01 12:47:00,68.5,35.1,30.46,ENE,78,3.0,9.0,29,0.00,,,0.00,meteohub,2013-05-01 16:47:00,
2013-05-01 12:52:00,68.7,36.9,30.46,SSW,196,3.0,9.0,31,0.00,,,0.00,meteohub,2013-05-01 16:52:00,
2013-05-01 12:58:00,68.7,36.9,30.46,SSW,206,1.0,10.0,31,0.00,,,0.00,meteohub,2013-05-01 16:58:00,
2013-05-01 13:03:00,69.4,38.3,30.46,South,177,2.0,10.0,32,0.00,,,0.00,meteohub,2013-05-01 17:03:00,
2013-05-01 13:08:00,69.6,36.0,30.46,SSE,148,4.0,10.0,29,0.00,,,0.00,meteohub,2013-05-01 17:08:00,
2013-05-01 13:13:00,69.4,37.4,30.46,SSE,166,4.0,10.0,31,0.00,,,0.00,meteohub,2013-05-01 17:13:00,
2013-05-01 13:18:00,69.8,38.7,30.46,ESE,107,0.0,11.0,32,0.00,,,0.00,meteohub,2013-05-01 17:18:00,
2013-05-01 13:23:00,69.8,34.3,30.46,SW,223,3.0,11.0,27,0.00,,,0.00,meteohub,2013-05-01 17:23:00,
2013-05-01 13:28:00,70.0,34.5,30.46,SSE,150,6.0,11.0,27,0.00,,,0.00,meteohub,2013-05-01 17:28:00,
2013-05-01 13:33:00,70.0,31.5,30.46,SSW,194,6.0,9.0,24,0.00,,,0.00,meteohub,2013-05-01 17:33:00,
2013-05-01 13:38:00,70.2,32.7,30.46,South,187,2.0,10.0,25,0.00,,,0.00,meteohub,2013-05-01 17:38:00,
2013-05-01 13:43:00,70.2,31.6,30.45,SSW,201,7.0,10.0,24,0.00,,,0.00,meteohub,2013-05-01 17:43:00,
2013-05-01 13:48:00,70.3,32.9,30.45,WSW,255,9.0,10.0,25,0.00,,,0.00,meteohub,2013-05-01 17:48:00,
2013-05-01 13:53:00,70.3,32.9,30.45,South,170,2.0,11.0,25,0.00,,,0.00,meteohub,2013-05-01 17:53:00,
2013-05-01 13:58:00,70.3,33.8,30.45,SSE,152,1.0,11.0,26,0.00,,,0.00,meteohub,2013-05-01 17:58:00,
2013-05-01 14:03:00,70.7,28.8,30.45,SSE,155,3.0,10.0,21,0.00,,,0.00,meteohub,2013-05-01 18:03:00,
2013-05-01 14:08:00,70.7,31.1,30.45,SE,141,3.0,10.0,23,0.00,,,0.00,meteohub,2013-05-01 18:08:00,
2013-05-01 14:13:00,70.3,28.6,30.45,SSE,154,2.0,10.0,21,0.00,,,0.00,meteohub,2013-05-01 18:13:00,
2013-05-01 14:18:00,70.5,33.1,30.45,SSW,213,4.0,9.0,25,0.00,,,0.00,meteohub,2013-05-01 18:18:00,
2013-05-01 14:23:00,71.1,32.4,30.45,SSE,167,1.0,8.0,24,0.00,,,0.00,meteohub,2013-05-01 18:23:00,
2013-05-01 14:28:00,71.2,31.5,30.44,East,91,1.0,8.0,23,0.00,,,0.00,meteohub,2013-05-01 18:28:00,
2013-05-01 14:33:00,71.4,30.6,30.44,SSE,166,4.0,8.0,22,0.00,,,0.00,meteohub,2013-05-01 18:33:00,
2013-05-01 14:38:00,71.4,32.7,30.45,SSE,159,4.0,8.0,24,0.00,,,0.00,meteohub,2013-05-01 18:38:00,
2013-05-01 14:43:00,71.8,32.0,30.45,ESE,113,7.0,8.0,23,0.00,,,0.00,meteohub,2013-05-01 18:43:00,
2013-05-01 14:48:00,71.6,27.1,30.45,South,180,3.0,8.0,19,0.00,,,0.00,meteohub,2013-05-01 18:48:00,
2013-05-01 14:53:00,71.4,28.2,30.44,South,178,4.0,10.0,20,0.00,,,0.00,meteohub,2013-05-01 18:53:00,
2013-05-01 14:58:00,71.2,25.5,30.44,SSW,209,5.0,10.0,18,0.00,,,0.00,meteohub,2013-05-01 18:58:00,
2013-05-01 15:03:00,71.4,27.0,30.44,South,174,2.0,10.0,19,0.00,,,0.00,meteohub,2013-05-01 19:03:00,
2013-05-01 15:08:00,71.2,24.3,30.44,SSW,202,3.0,11.0,17,0.00,,,0.00,meteohub,2013-05-01 19:08:00,
2013-05-01 15:13:00,71.2,25.5,30.44,SSW,213,4.0,11.0,18,0.00,,,0.00,meteohub,2013-05-01 19:13:00,
2013-05-01 15:18:00,71.1,29.1,30.44,SSW,192,3.0,11.0,21,0.00,,,0.00,meteohub,2013-05-01 19:18:00,
2013-05-01 15:23:00,71.2,28.0,30.44,SW,232,4.0,11.0,20,0.00,,,0.00,meteohub,2013-05-01 19:23:00,
2013-05-01 15:28:00,71.1,28.0,30.44,SSE,167,3.0,10.0,20,0.00,,,0.00,meteohub,2013-05-01 19:28:00,
2013-05-01 15:33:00,71.4,27.0,30.44,South,186,3.0,10.0,19,0.00,,,0.00,meteohub,2013-05-01 19:33:00,
2013-05-01 15:38:00,71.2,19.6,30.44,South,191,1.0,10.0,14,0.00,,,0.00,meteohub,2013-05-01 19:38:00,
2013-05-01 15:43:00,71.2,26.8,30.44,SE,141,5.0,7.0,19,0.00,,,0.00,meteohub,2013-05-01 19:43:00,
2013-05-01 15:48:00,71.6,30.7,30.44,SE,145,0.0,7.0,22,0.00,,,0.00,meteohub,2013-05-01 19:48:00,
2013-05-01 15:53:00,72.0,24.8,30.44,SSW,211,0.0,7.0,17,0.00,,,0.00,meteohub,2013-05-01 19:53:00,
2013-05-01 15:58:00,72.1,32.4,30.44,SSE,151,5.0,7.0,23,0.00,,,0.00,meteohub,2013-05-01 19:58:00,
2013-05-01 16:03:00,71.8,27.3,30.44,South,179,3.0,8.0,19,0.00,,,0.00,meteohub,2013-05-01 20:03:00,
2013-05-01 16:08:00,71.4,25.7,30.44,SE,138,0.0,8.0,18,0.00,,,0.00,meteohub,2013-05-01 20:08:00,
2013-05-01 16:13:00,71.8,26.1,30.44,ESE,112,4.0,8.0,18,0.00,,,0.00,meteohub,2013-05-01 20:13:00,
2013-05-01 16:18:00,71.8,35.1,30.44,South,175,2.0,8.0,26,0.00,,,0.00,meteohub,2013-05-01 20:18:00,
2013-05-01 16:23:00,71.6,28.4,30.44,East,97,2.0,8.0,20,0.00,,,0.00,meteohub,2013-05-01 20:23:00,
2013-05-01 16:28:00,71.8,29.7,30.44,SSE,151,4.0,8.0,21,0.00,,,0.00,meteohub,2013-05-01 20:28:00,
2013-05-01 16:33:00,71.4,28.2,30.43,South,170,3.0,8.0,20,0.00,,,0.00,meteohub,2013-05-01 20:33:00,
2013-05-01 16:38:00,71.4,27.0,30.44,West,267,4.0,9.0,19,0.00,,,0.00,meteohub,2013-05-01 20:38:00,
2013-05-01 16:43:00,71.6,24.4,30.43,SW,220,0.0,9.0,17,0.00,,,0.00,meteohub,2013-05-01 20:43:00,
2013-05-01 16:48:00,72.0,29.8,30.43,SE,134,2.0,9.0,21,0.00,,,0.00,meteohub,2013-05-01 20:48:00,
2013-05-01 16:53:00,72.0,32.2,30.44,South,181,3.0,6.0,23,0.00,,,0.00,meteohub,2013-05-01 20:53:00,
2013-05-01 16:58:00,72.0,27.5,30.43,South,178,3.0,7.0,19,0.00,,,0.00,meteohub,2013-05-01 20:58:00,
2013-05-01 17:04:00,71.8,24.6,30.43,SW,226,0.0,7.0,17,0.00,,,0.00,meteohub,2013-05-01 21:04:00,
2013-05-01 17:08:00,71.6,27.1,30.43,SSE,167,0.0,7.0,19,0.00,,,0.00,meteohub,2013-05-01 21:08:00,
2013-05-01 17:13:00,71.8,30.9,30.44,South,184,7.0,7.0,22,0.00,,,0.00,meteohub,2013-05-01 21:13:00,
2013-05-01 17:19:00,71.4,28.2,30.44,South,184,4.0,9.0,20,0.00,,,0.00,meteohub,2013-05-01 21:19:00,
2013-05-01 17:24:00,71.2,30.4,30.44,SSW,194,1.0,9.0,22,0.00,,,0.00,meteohub,2013-05-01 21:24:00,
2013-05-01 17:29:00,71.2,30.4,30.44,South,190,6.0,9.0,22,0.00,,,0.00,meteohub,2013-05-01 21:29:00,
2013-05-01 17:34:00,71.1,28.0,30.44,South,183,2.0,9.0,20,0.00,,,0.00,meteohub,2013-05-01 21:34:00,
2013-05-01 17:39:00,71.1,30.2,30.44,SSW,192,1.0,9.0,22,0.00,,,0.00,meteohub,2013-05-01 21:39:00,
2013-05-01 17:44:00,71.2,31.5,30.44,SSW,194,4.0,8.0,23,0.00,,,0.00,meteohub,2013-05-01 21:44:00,
2013-05-01 17:49:00,71.1,35.4,30.44,SSW,202,4.0,8.0,27,0.00,,,0.00,meteohub,2013-05-01 21:49:00,
2013-05-01 17:54:00,70.9,31.3,30.44,SSW,196,2.0,7.0,23,0.00,,,0.00,meteohub,2013-05-01 21:54:00,
2013-05-01 17:59:00,70.5,30.9,30.44,SSW,194,3.0,7.0,23,0.00,,,0.00,meteohub,2013-05-01 21:59:00,
2013-05-01 18:04:00,70.5,28.8,30.44,South,191,1.0,7.0,21,0.00,,,0.00,meteohub,2013-05-01 22:04:00,
2013-05-01 18:09:00,70.5,30.9,30.44,SSW,196,2.0,7.0,23,0.00,,,0.00,meteohub,2013-05-01 22:09:00,
2013-05-01 18:14:00,70.3,30.7,30.44,South,170,1.0,7.0,23,0.00,,,0.00,meteohub,2013-05-01 22:14:00,
2013-05-01 18:19:00,70.2,31.6,30.44,SSE,160,5.0,7.0,24,0.00,,,0.00,meteohub,2013-05-01 22:19:00,
2013-05-01 18:24:00,70.0,31.5,30.44,SSW,197,4.0,6.0,24,0.00,,,0.00,meteohub,2013-05-01 22:24:00,
2013-05-01 18:29:00,69.8,31.5,30.44,SSW,192,0.0,6.0,24,0.00,,,0.00,meteohub,2013-05-01 22:29:00,
2013-05-01 18:34:00,69.4,30.0,30.44,SSE,163,1.0,8.0,23,0.00,,,0.00,meteohub,2013-05-01 22:34:00,
2013-05-01 18:39:00,69.3,30.9,30.44,South,186,3.0,8.0,24,0.00,,,0.00,meteohub,2013-05-01 22:39:00,
2013-05-01 18:44:00,68.7,33.4,30.44,South,186,0.0,5.0,27,0.00,,,0.00,meteohub,2013-05-01 22:44:00,
2013-05-01 18:49:00,68.4,31.1,30.45,SSW,193,2.0,5.0,25,0.00,,,0.00,meteohub,2013-05-01 22:49:00,
2013-05-01 18:54:00,67.8,30.7,30.45,SSW,193,2.0,4.0,25,0.00,,,0.00,meteohub,2013-05-01 22:54:00,
2013-05-01 18:59:00,67.5,29.5,30.45,South,184,1.0,4.0,24,0.00,,,0.00,meteohub,2013-05-01 22:59:00,
2013-05-01 19:04:00,66.7,29.8,30.45,South,179,3.0,4.0,25,0.00,,,0.00,meteohub,2013-05-01 23:04:00,
2013-05-01 19:09:00,66.6,29.7,30.45,South,179,0.0,4.0,25,0.00,,,0.00,meteohub,2013-05-01 23:09:00,
2013-05-01 19:14:00,66.4,29.5,30.45,South,179,0.0,4.0,25,0.00,,,0.00,meteohub,2013-05-01 23:14:00,
2013-05-01 19:19:00,66.0,30.2,30.45,South,179,0.0,3.0,26,0.00,,,0.00,meteohub,2013-05-01 23:19:00,
2013-05-01 19:24:00,65.8,28.0,30.45,South,179,0.0,2.0,24,0.00,,,0.00,meteohub,2013-05-01 23:24:00,
2013-05-01 19:29:00,65.7,29.8,30.45,South,179,0.0,2.0,26,0.00,,,0.00,meteohub,2013-05-01 23:29:00,
2013-05-01 19:34:00,65.5,29.7,30.45,South,179,0.0,2.0,26,0.00,,,0.00,meteohub,2013-05-01 23:34:00,
2013-05-01 19:39:00,65.5,27.7,30.46,SSE,162,0.0,2.0,24,0.00,,,0.00,meteohub,2013-05-01 23:39:00,
2013-05-01 19:44:00,65.7,27.9,30.46,SSE,162,1.0,3.0,24,0.00,,,0.00,meteohub,2013-05-01 23:44:00,
2013-05-01 19:49:00,65.7,28.9,30.46,SSE,162,1.0,3.0,25,0.00,,,0.00,meteohub,2013-05-01 23:49:00,
2013-05-01 19:54:00,65.3,28.6,30.45,SSE,162,0.0,3.0,25,0.00,,,0.00,meteohub,2013-05-01 23:54:00,
2013-05-01 19:59:00,64.8,29.1,30.46,SSE,162,3.0,3.0,26,0.00,,,0.00,meteohub,2013-05-01 23:59:00,
2013-05-01 20:04:00,64.6,28.9,30.46,SE,141,2.0,3.0,26,0.00,,,0.00,meteohub,2013-05-02 00:04:00,
2013-05-01 20:09:00,64.2,28.6,30.46,SE,141,0.0,8.0,26,0.00,,,0.00,meteohub,2013-05-02 00:09:00,
2013-05-01 20:14:00,64.2,27.7,30.46,SE,140,0.0,8.0,25,0.00,,,0.00,meteohub,2013-05-02 00:14:00,
2013-05-01 20:19:00,63.5,28.9,30.46,SE,140,0.0,8.0,27,0.00,,,0.00,meteohub,2013-05-02 00:19:00,
2013-05-01 20:24:00,62.6,29.1,30.47,SE,140,0.0,2.0,28,0.00,,,0.00,meteohub,2013-05-02 00:24:00,
2013-05-01 20:29:00,62.1,27.7,30.47,SE,140,0.0,2.0,27,0.00,,,0.00,meteohub,2013-05-02 00:29:00,
2013-05-01 20:34:00,61.9,28.4,30.47,SE,140,0.0,2.0,28,0.00,,,0.00,meteohub,2013-05-02 00:34:00,
2013-05-01 20:39:00,61.5,28.0,30.47,SE,140,0.0,2.0,28,0.00,,,0.00,meteohub,2013-05-02 00:39:00,
2013-05-01 20:44:00,61.3,28.8,30.47,SE,140,0.0,2.0,29,0.00,,,0.00,meteohub,2013-05-02 00:44:00,
2013-05-01 20:49:00,61.7,29.1,30.47,SSW,198,0.0,1.0,29,0.00,,,0.00,meteohub,2013-05-02 00:49:00,
2013-05-01 20:55:00,61.2,30.2,30.47,SSW,198,0.0,1.0,31,0.00,,,0.00,meteohub,2013-05-02 00:55:00,
2013-05-01 21:00:00,61.3,29.7,30.47,NNW,330,1.0,2.0,30,0.00,,,0.00,meteohub,2013-05-02 01:00:00,
2013-05-01 21:05:00,61.2,28.6,30.47,North,9,0.0,4.0,29,0.00,,,0.00,meteohub,2013-05-02 01:05:00,
2013-05-01 21:10:00,61.3,27.1,30.48,North,9,0.0,4.0,27,0.00,,,0.00,meteohub,2013-05-02 01:10:00,
2013-05-01 21:15:00,61.2,29.5,30.48,North,9,0.0,4.0,30,0.00,,,0.00,meteohub,2013-05-02 01:15:00,
2013-05-01 21:20:00,61.2,29.5,30.48,North,9,0.0,3.0,30,0.00,,,0.00,meteohub,2013-05-02 01:20:00,
2013-05-01 21:25:00,60.4,30.4,30.48,North,9,1.0,2.0,32,0.00,,,0.00,meteohub,2013-05-02 01:25:00,
2013-05-01 21:30:00,59.7,28.2,30.48,North,9,0.0,2.0,30,0.00,,,0.00,meteohub,2013-05-02 01:30:00,
2013-05-01 21:35:00,60.1,29.3,30.48,North,9,0.0,3.0,31,0.00,,,0.00,meteohub,2013-05-02 01:35:00,
2013-05-01 21:40:00,60.1,30.9,30.49,North,9,0.0,3.0,33,0.00,,,0.00,meteohub,2013-05-02 01:40:00,
2013-05-01 21:45:00,60.4,29.7,30.49,SSW,202,5.0,5.0,31,0.00,,,0.00,meteohub,2013-05-02 01:45:00,
2013-05-01 21:50:00,62.8,29.1,30.49,South,184,5.0,10.0,28,0.00,,,0.00,meteohub,2013-05-02 01:50:00,
2013-05-01 21:55:00,63.5,31.5,30.48,SE,140,7.0,11.0,30,0.00,,,0.00,meteohub,2013-05-02 01:55:00,
2013-05-01 22:00:00,63.3,29.7,30.49,SSE,151,0.0,11.0,28,0.00,,,0.00,meteohub,2013-05-02 02:00:00,
2013-05-01 22:05:00,62.4,30.6,30.49,ESE,116,1.0,7.0,30,0.00,,,0.00,meteohub,2013-05-02 02:05:00,
2013-05-01 22:10:00,61.7,30.0,30.48,ESE,115,0.0,7.0,30,0.00,,,0.00,meteohub,2013-05-02 02:10:00,
2013-05-01 22:15:00,61.5,31.5,30.48,ESE,115,0.0,2.0,32,0.00,,,0.00,meteohub,2013-05-02 02:15:00,
2013-05-01 22:20:00,60.3,31.1,30.48,ESE,107,1.0,2.0,33,0.00,,,0.00,meteohub,2013-05-02 02:20:00,
2013-05-01 22:25:00,58.8,30.6,30.48,ESE,107,1.0,2.0,34,0.00,,,0.00,meteohub,2013-05-02 02:25:00,
2013-05-01 22:30:00,57.9,30.4,30.48,ESE,107,0.0,2.0,35,0.00,,,0.00,meteohub,2013-05-02 02:30:00,
2013-05-01 22:35:00,58.5,30.9,30.48,NNE,19,0.0,2.0,35,0.00,,,0.00,meteohub,2013-05-02 02:35:00,
2013-05-01 22:40:00,59.0,31.5,30.48,ESE,102,0.0,5.0,35,0.00,,,0.00,meteohub,2013-05-02 02:40:00,
2013-05-01 22:45:00,58.8,31.3,30.48,East,101,0.0,5.0,35,0.00,,,0.00,meteohub,2013-05-02 02:45:00,
2013-05-01 22:50:00,59.2,30.7,30.48,East,88,2.0,3.0,34,0.00,,,0.00,meteohub,2013-05-02 02:50:00,
2013-05-01 22:55:00,58.8,32.0,30.48,NNE,16,2.0,3.0,36,0.00,,,0.00,meteohub,2013-05-02 02:55:00,
2013-05-01 23:00:00,57.0,32.4,30.48,NNE,16,2.0,4.0,39,0.00,,,0.00,meteohub,2013-05-02 03:00:00,
2013-05-01 23:06:00,56.7,32.0,30.48,NNE,16,2.0,4.0,39,0.00,,,0.00,meteohub,2013-05-02 03:06:00,
2013-05-01 23:11:00,56.7,33.3,30.48,NE,51,2.0,4.0,41,0.00,,,0.00,meteohub,2013-05-02 03:11:00,
2013-05-01 23:16:00,57.2,31.8,30.48,ENE,59,0.0,3.0,38,0.00,,,0.00,meteohub,2013-05-02 03:16:00,
2013-05-01 23:21:00,57.6,32.2,30.48,ENE,59,1.0,3.0,38,0.00,,,0.00,meteohub,2013-05-02 03:21:00,
2013-05-01 23:26:00,57.9,33.1,30.48,NNE,17,0.0,4.0,39,0.00,,,0.00,meteohub,2013-05-02 03:26:00,
2013-05-01 23:31:00,57.9,31.8,30.48,WSW,244,0.0,4.0,37,0.00,,,0.00,meteohub,2013-05-02 03:31:00,
2013-05-01 23:36:00,57.9,31.8,30.48,WSW,244,0.0,4.0,37,0.00,,,0.00,meteohub,2013-05-02 03:36:00,
2013-05-01 23:41:00,57.9,32.5,30.48,WSW,244,0.0,2.0,38,0.00,,,0.00,meteohub,2013-05-02 03:41:00,
2013-05-01 23:46:00,57.9,33.1,30.48,WSW,244,0.0,2.0,39,0.00,,,0.00,meteohub,2013-05-02 03:46:00,
2013-05-01 23:51:00,57.7,31.6,30.48,WSW,244,0.0,1.0,37,0.00,,,0.00,meteohub,2013-05-02 03:51:00,
2013-05-01 23:56:00,57.6,31.5,30.48,WSW,244,0.0,2.0,37,0.00,,,0.00,meteohub,2013-05-02 03:56:00,